^^

METAR Μετεωρολογικών Σταθμών

Νησιά Αιγαίου και Κρήτη


 Τι είναι το METAR ??? 

Πρώτος είναι ο πλησιέστερος Μετεωρολογικός Σταθμός (Καλλιόπη 214χλμ)
και τέλος ο πιο απομακρυσμένος (Φρυ 668χλμ).
Επίσης μερικές αναφορές, παρουσιάζουν λιγότερα στοιχεία γιατί
οι αρχικές είναι ελλιπείς ή έχουν λάθος μορφοποίηση.
Πηγαίνετε στις Αναφορές METAR από Αεροδρόμια )  
Επιλέξτε Τμήμα:   Βόρεια Ελλάδα  -   Κεντρική, Δυτική & Νότια Ελλάδα  -   Νησιά Αγαίου & Κρήτη
Αλφαβητική Λίστα Γρήγορης Μετάβασης στούς 56 Μετεωρολογικούς Σταθμούς
Σύμφωνα με την διοικητική διαίρεση κατά το «Πρόγραμμα Καλλικράτης»
Βόρειο Αιγαίο  (Ικαρία: Καστανιές) (Λέσβος: Αγία Παρασκευή  Ακράσι  Θέρμη  Μυτιλήνη  Πέτρα  Σίγρι) (Λήμνος: Καλλιόπη) (Σάμος: Καρλόβασι  Καρλόβασι-Λιμάνι) (Χίος: Χίος-Κάμπος)
Κρήτη  (Ηράκλειο: Γάζι  Γέργερη  Ηράκλειο-Πόρος  Ηράκλειο-Λιμάνι  Κνωσσός  Λέντας  Μεσοχωριό  Μεταξοχώρι  Πετροκεφάλι  Σταυράκια)
(Ρέθυμνο: Ανώγεια  Ρέθυμνο  Ρούστικα  Φουρφουράς  Φράγμα Ποταμών) (Λασίθι: Αγιος Νικόλαος  Ιεράπετρα  Σητεία  Τζερμιάδο) (Χανιά: Αρμένοι  Βρύσες  Δραπανιάς  Έλος  Παλαιοχώρα  Σαμαριά-Φαράγγι  Φαλάσαρνα  Χανιά  Χανιά-Κέντρο)
Νότιο Αιγαίο  (Ανδρος: Γαύριο-Λιόπεσι) (Θήρα: Ίος) (Κάλυμνος: Κάλυμνος  Πάτμος) (Κάρπαθος: Φρυ-Νησί Κάσος)
(Κέα Κύθνος: Ιουλίδα-Νησί Κέα ή Τζιά  Λόφος Καστρί-Νησί Κέα ή Τζιά) (Μύκονος: Μύκονος) (Νάξος: Ηρακλειά  Κατάπολα-Νησί Αμοργός  Κυνίδαρος  Νάξος) (Πάρος: Πούντα) (Ρόδος: Ρόδος-Ροδίνι) (Σύρος: Ερμούπολη  Περδίκι) (Τήνος: Τήνος)
(Ι.Μ.Σ.)Ιδιωτικός Μετεωρολογικός Σταθμός - (Ε.Α.Α.)Εθνικό Αστεροσκοπείο Αθηνών
(Π.Α.)Πανεπιστήμιο Αιγαίου - (ΕΘ.Ι.ΑΓ.Ε.)Eθνικό Ίδρυμα Αγροτικής Έρευνας
(Ε.Α.Α.)  LGI5 - Καλλιόπη  (Σταθμός:1279)
Λήμνος - Λήμνος - Β. Αιγαίο
Γ.Πλάτ: 39.92 - Γ.Μήκ: 25.33 - Υψόμ: 22μ
Απόσταση από το Vouhead Weather: (ΑΝΑ) 214χλμ
Ενημερώθηκε: 31/10/2017 13:34
ΜΗ ΠΡΟΣΦΑΤΟ METAR
Μερικώς νεφελώδης
Μερικώς νεφελώδης
 Άνεμος από Α
Άνεμος: Α 6 χΑω
Θερμοκρασία: 15°C
Σημ. Δρόσου: 6°C
Υγρασία: 55%
Βαρόμετρο: 1020 hPa
Σύννεφα: Μερικώς νεφελώδης
Ορατότητα: 10 χλμ
Ανάλυση νέφωσης: Μερικώς νεφελώδης 1006μ
2017/10/31 11:34 1279 311134Z 09003KT 9999 SCT033 15/06 Q1020
(Π.Α.)  Σίγρι  (Σταθμός:1294)
Λέσβος - Λέσβος - Β. Αιγαίο
Γ.Πλάτ: 39.21 - Γ.Μήκ: 25.86 - Υψόμ: 26μ
Απόσταση από το Vouhead Weather: (ΑΝΑ) 289χλμ
Ενημερώθηκε: 23/10/2017 12:19
ΜΗ ΠΡΟΣΦΑΤΟ METAR
Διάσπαρτα νέφη
Διάσπαρτα νέφη
 Άνεμος από Α
Άνεμος: Α 4 χΑω
Θερμοκρασία: 22°C
Σημ. Δρόσου: 17°C
Υγρασία: 73%
Βαρόμετρο: 1013 hPa
Σύννεφα: Διάσπαρτα νέφη
Ορατότητα: 8 χλμ
Ανάλυση νέφωσης: Διάσπαρτα νέφη 640μ
2017/10/23 09:19 1294 230919Z 09002KT 8000 FEW021 22/17 Q1013
 
(Ε.Α.Α.)  LGI6 - Πέτρα  (Σταθμός:1280)
Λέσβος - Λέσβος - Β. Αιγαίο
Γ.Πλάτ: 39.33 - Γ.Μήκ: 26.18 - Υψόμ: 2μ
Απόσταση από το Vouhead Weather: (ΑΝΑ) 306χλμ
Ενημερώθηκε: 01/11/2017 17:04
ΜΗ ΠΡΟΣΦΑΤΟ METAR
Μερικώς νεφελώδης
Μερικώς νεφελώδης
 Άνεμος από Β
Άνεμος: Β 15 χΑω
Θερμοκρασία: 14°C
Σημ. Δρόσου: 6°C
Υγρασία: 59%
Βαρόμετρο: 1023 hPa
Σύννεφα: Μερικώς νεφελώδης
Ορατότητα: 10 χλμ
Ανάλυση νέφωσης: Μερικώς νεφελώδης 975μ
2017/11/01 15:04 1280 011504Z 36008KT 9999 SCT032 14/06 Q1023
(Π.Α.)  Αγία Παρασκευή  (Σταθμός:1247)
Λέσβος - Λέσβος - Β. Αιγαίο
Γ.Πλάτ: 39.22 - Γ.Μήκ: 26.29 - Υψόμ: 94μ
Απόσταση από το Vouhead Weather: (ΑΝΑ) 318χλμ
Ενημερώθηκε: 02/11/2017 14:04
ΜΗ ΠΡΟΣΦΑΤΟ METAR
Διάσπαρτα νέφη
Διάσπαρτα νέφη
 Άνεμος από ΒΑ
Άνεμος: ΒΑ 4 χΑω
Θερμοκρασία: 17°C
Σημ. Δρόσου: 8°C
Υγρασία: 56%
Βαρόμετρο: 1028 hPa
Σύννεφα: Διάσπαρτα νέφη
Ορατότητα: 10 χλμ
Ανάλυση νέφωσης: Διάσπαρτα νέφη 1006μ
2017/11/02 12:04 1247 021204Z 04502KT 9999 FEW033 17/08 Q1028
 
(Π.Α.)  Ακράσι  (Σταθμός:1228)
Λέσβος - Λέσβος - Β. Αιγαίο
Γ.Πλάτ: 39.03 - Γ.Μήκ: 26.31 - Υψόμ: 362μ
Απόσταση από το Vouhead Weather: (ΑΝΑ) 333χλμ
Ενημερώθηκε: 02/11/2017 14:04
ΜΗ ΠΡΟΣΦΑΤΟ METAR
Διάσπαρτα νέφη
Διάσπαρτα νέφη
 Άνεμος από ΑΒΑ
Άνεμος: ΑΒΑ 4 χΑω
Θερμοκρασία: 14°C
Σημ. Δρόσου: 7°C
Υγρασία: 63%
Βαρόμετρο: 1067 hPa
Σύννεφα: Διάσπαρτα νέφη
Ορατότητα: 10 χλμ
Ανάλυση νέφωσης: Διάσπαρτα νέφη 823μ
2017/11/02 12:04 1228 021204Z 06702KT 9999 FEW027 14/07 Q1067
(Ε.Α.Α.)  LGN6 - Γαύριο(Λιόπεσι)  (Σταθμός:1362)
Ανδρος - Ανδρος - N. Αιγαίο
Γ.Πλάτ: 37.88 - Γ.Μήκ: 24.75 - Υψόμ: 15μ
Απόσταση από το Vouhead Weather: (ΝΝΑ) 334χλμ
Ενημερώθηκε: 02/11/2017 14:04
ΜΗ ΠΡΟΣΦΑΤΟ METAR
Μερικώς νεφελώδης
Μερικώς νεφελώδης
 Άνεμος από Β
Άνεμος: Β 13 χΑω
Θερμοκρασία: 17°C
Σημ. Δρόσου: 9°C
Υγρασία: 59%
Βαρόμετρο: 1020 hPa
Σύννεφα: Μερικώς νεφελώδης
Ορατότητα: 10 χλμ
Ανάλυση νέφωσης: Μερικώς νεφελώδης 975μ
2017/11/02 12:04 1362 021204Z 36007KT 9999 SCT032 17/09 Q1020
 
(Ε.Α.Α.)  LGJ3 - Θέρμη  (Σταθμός:1290)
Λέσβος - Λέσβος - Β. Αιγαίο
Γ.Πλάτ: 39.18 - Γ.Μήκ: 26.49 - Υψόμ: 2μ
Απόσταση από το Vouhead Weather: (ΑΝΑ) 337χλμ
Ενημερώθηκε: 02/11/2017 14:04
ΜΗ ΠΡΟΣΦΑΤΟ METAR
Μερικώς νεφελώδης
Μερικώς νεφελώδης
 Άνεμος από ΒΒΔ
Άνεμος: ΒΒΔ 9 χΑω
Θερμοκρασία: 14°C
Σημ. Δρόσου: 7°C
Υγρασία: 63%
Βαρόμετρο: 1020 hPa
Σύννεφα: Μερικώς νεφελώδης
Ορατότητα: 10 χλμ
Ανάλυση νέφωσης: Μερικώς νεφελώδης 884μ
2017/11/02 12:04 1290 021204Z 33705KT 9999 SCT029 14/07 Q1020
(Ε.Α.Α.)  LGE3 - Λόφος Καστρί  (Σταθμός:1183)
(Μοναστήρι Παναγιάς της Καστριανής)
Κέα - Κέα Κύθνος - N. Αιγαίο
Γ.Πλάτ: 37.63 - Γ.Μήκ: 24.31 - Υψόμ: 115μ
Απόσταση από το Vouhead Weather: (ΝΝΑ) 345χλμ
Ενημερώθηκε: 29/10/2017 10:34
ΜΗ ΠΡΟΣΦΑΤΟ METAR
Κυρίως νεφελώδης
Κυρίως νεφελώδης
 Άνεμος από Β
Άνεμος: Β 15 χΑω
Θερμοκρασία: 15°C
Σημ. Δρόσου: 8°C
Υγρασία: 63%
Βαρόμετρο: 1013 hPa
Σύννεφα: Κυρίως νεφελώδης
Ορατότητα: 9 χλμ
Ανάλυση νέφωσης: Κυρίως νεφελώδης 732μ
2017/10/29 08:34 1183 290834Z 36008KT 9000 BKN024 15/08 Q1013
 
(Ε.Α.Α.)  LG** - Ιουλίδα  (Σταθμός:1383)
Κέα - Κέα Κύθνος - N. Αιγαίο
Γ.Πλάτ: 37.64 - Γ.Μήκ: 24.34 - Υψόμ: 280μ
Απόσταση από το Vouhead Weather: (ΝΝΑ) 346χλμ
Ενημερώθηκε: 02/11/2017 14:04
ΜΗ ΠΡΟΣΦΑΤΟ METAR
Μερικώς νεφελώδης
Μερικώς νεφελώδης
 Άνεμος από ΒΒΔ
Άνεμος: ΒΒΔ 9 χΑω
Θερμοκρασία: 12°C
Σημ. Δρόσου: 7°C
Υγρασία: 72%
Βαρόμετρο: 1024 hPa
Σύννεφα: Μερικώς νεφελώδης
Ορατότητα: 9 χλμ
Ανάλυση νέφωσης: Μερικώς νεφελώδης 610μ
2017/11/02 12:04 1383 021204Z 33705KT 9000 SCT020 12/07 Q1024
(Π.Α.)  Μυτιλήνη  (Σταθμός:1015)
Λέσβος - Λέσβος - Β. Αιγαίο
Γ.Πλάτ: 39.08 - Γ.Μήκ: 26.57 - Υψόμ: 71μ
Απόσταση από το Vouhead Weather: (ΑΝΑ) 347χλμ
Ενημερώθηκε: 02/11/2017 14:03
ΜΗ ΠΡΟΣΦΑΤΟ METAR
Αίθριος
Αίθριος
 Άνεμος από ΝΑ
Άνεμος: ΝΑ 11 χΑω
Θερμοκρασία: 18°C
Σημ. Δρόσου: 9°C
Υγρασία: 56%
Βαρόμετρο: 1030 hPa
Σύννεφα: Αίθριος
Ορατότητα: 10 χλμ
2017/11/02 12:03 1015 021203Z 13506KT 9999 SKC 18/09 Q1030
 
(Ι.Μ.Σ.)  Χίος(Κάμπος)  (Σταθμός:1363)
Χίος - Χίος - Β. Αιγαίο
Γ.Πλάτ: 38.32 - Γ.Μήκ: 26.12 - Υψόμ: 33μ
Απόσταση από το Vouhead Weather: (ΝΑ) 368χλμ
Ενημερώθηκε: 11/01/2017 20:50
ΜΗ ΠΡΟΣΦΑΤΟ METAR
Νεφοσκεπής
Νεφοσκεπής
 Άνεμος από Β
Άνεμος: Β 7 χΑω
Θερμοκρασία: 15°C
Σημ. Δρόσου: 8°C
Υγρασία: 63%
Βαρόμετρο: 1019 hPa
Σύννεφα: Νεφοσκεπής
Ορατότητα: 9 χλμ
Ανάλυση νέφωσης: Νεφοσκεπής 732μ
2017/01/11 18:50 1239 111850Z 36004KT 9000 OVC024 15/08 Q1019
(Ε.Α.Α.)  LGB8 - Τήνος  (Σταθμός:1146)
Τήνος - Τήνος - N. Αιγαίο
Γ.Πλάτ: 37.54 - Γ.Μήκ: 25.16 - Υψόμ: 20μ
Απόσταση από το Vouhead Weather: (ΝΝΑ) 385χλμ
Ενημερώθηκε: 02/11/2017 14:04
ΜΗ ΠΡΟΣΦΑΤΟ METAR
Διάσπαρτα νέφη
Διάσπαρτα νέφη
 Άνεμος από ΒΒΑ
Άνεμος: ΒΒΑ 11 χΑω
Θερμοκρασία: 16°C
Σημ. Δρόσου: 8°C
Υγρασία: 59%
Βαρόμετρο: 1020 hPa
Σύννεφα: Διάσπαρτα νέφη
Ορατότητα: 10 χλμ
Ανάλυση νέφωσης: Διάσπαρτα νέφη 884μ
2017/11/02 12:04 1146 021204Z 02206KT 9999 FEW029 16/08 Q1020
 
(Ι.Μ.Σ.)  Ερμούπολη  (Σταθμός:1153)
Σύρος Ερμούπολη - Σύρος - N. Αιγαίο
Γ.Πλάτ: 37.44 - Γ.Μήκ: 24.94 - Υψόμ: 10μ
Απόσταση από το Vouhead Weather: (ΝΝΑ) 386χλμ
Ενημερώθηκε: 23/03/2022 17:51
ΜΗ ΠΡΟΣΦΑΤΟ METAR
Διάσπαρτα νέφη
Διάσπαρτα νέφη
 Άνεμος από ΝΔ
Άνεμος: ΝΔ 6 χΑω
Θερμοκρασία: 16°C
Σημ. Δρόσου: 3°C
Υγρασία: 42%
Βαρόμετρο: 1013 hPa
Σύννεφα: Διάσπαρτα νέφη
Ορατότητα: 10 χλμ
Ανάλυση νέφωσης: Διάσπαρτα νέφη 1524μ
2022/03/23 15:51 1153 231551Z 22503KT 9999 FEW050 16/03 Q1013
(Ι.Μ.Σ.)  Περδίκι  (Σταθμός:1241)
Σύρος Ερμούπολη - Σύρος - N. Αιγαίο
Γ.Πλάτ: 37.40 - Γ.Μήκ: 24.92 - Υψόμ: 123μ
Απόσταση από το Vouhead Weather: (ΝΝΑ) 390χλμ
Ενημερώθηκε: 19/08/2019 01:34
ΜΗ ΠΡΟΣΦΑΤΟ METAR
Αίθριος
Αίθριος
 Άνεμος από Β
Άνεμος: Β 11 χΑω
Θερμοκρασία: 24°C
Σημ. Δρόσου: 17°C
Υγρασία: 65%
Βαρόμετρο: 1013 hPa
Σύννεφα: Αίθριος
Ορατότητα: 9 χλμ
2019/08/18 22:34 1241 182234Z 36006KT 9000 SKC 24/17 Q1013
 
(Ε.Α.Α.)  LG66 - Μύκονος  (Σταθμός:1001)
Μύκονος - Μύκονος - N. Αιγαίο
Γ.Πλάτ: 37.45 - Γ.Μήκ: 25.33 - Υψόμ: 10μ
Απόσταση από το Vouhead Weather: (ΝΝΑ) 402χλμ
Ενημερώθηκε: 02/11/2017 14:03
ΜΗ ΠΡΟΣΦΑΤΟ METAR
Αίθριος
Αίθριος
 Άνεμος από Β
Άνεμος: Β 28 χΑω
Θερμοκρασία: 15°C
Σημ. Δρόσου: 9°C
Υγρασία: 68%
Βαρόμετρο: 1019 hPa
Σύννεφα: Αίθριος
Ορατότητα: 9 χλμ
2017/11/02 12:03 1001 021203Z 36015KT 9000 SKC 15/09 Q1019
(Ε.Α.Α.)  LGI9 - Καστανιές  (Σταθμός:1287)
(Αρχιπέλαγος)
Ικαρία - Ικαρία - Β. Αιγαίο
Γ.Πλάτ: 37.60 - Γ.Μήκ: 26.09 - Υψόμ: 515μ
Απόσταση από το Vouhead Weather: (ΝΑ) 426χλμ
Ενημερώθηκε: 02/11/2017 14:04
ΜΗ ΠΡΟΣΦΑΤΟ METAR
Αίθριος
Αίθριος
 Άνεμος από ΒΑ
Άνεμος: ΒΑ 2 χΑω
Θερμοκρασία: 11°C
Σημ. Δρόσου: 7°C
Υγρασία: 77%
Βαρόμετρο: 1018 hPa
Σύννεφα: Αίθριος
Ορατότητα: 8 χλμ
2017/11/02 12:04 1287 021204Z 04501KT 8000 SKC 11/07 Q1018
 
(Ε.Α.Α.)  LG02 - Πούντα  (Σταθμός:1002)
Πάρος - Πάρος - N. Αιγαίο
Γ.Πλάτ: 37.04 - Γ.Μήκ: 25.10 - Υψόμ: 8μ
Απόσταση από το Vouhead Weather: (ΝΝΑ) 433χλμ
Ενημερώθηκε: 02/11/2017 14:03
ΜΗ ΠΡΟΣΦΑΤΟ METAR
Διάσπαρτα νέφη
Διάσπαρτα νέφη
 Άνεμος από Β
Άνεμος: Β 22 χΑω
Θερμοκρασία: 16°C
Σημ. Δρόσου: 9°C
Υγρασία: 63%
Βαρόμετρο: 1021 hPa
Σύννεφα: Διάσπαρτα νέφη
Ορατότητα: 9 χλμ
Ανάλυση νέφωσης: Διάσπαρτα νέφη 792μ
2017/11/02 12:03 1002 021203Z 36012KT 9000 FEW026 16/09 Q1021
(Ε.Α.Α.)  LGM0 - Νάξος  (Σταθμός:1341)
Νάξος Μικρές Κυκλάδες - Νάξος - N. Αιγαίο
Γ.Πλάτ: 37.11 - Γ.Μήκ: 25.38 - Υψόμ: 19μ
Απόσταση από το Vouhead Weather: (ΝΝΑ) 437χλμ
Ενημερώθηκε: 02/11/2017 14:04
ΜΗ ΠΡΟΣΦΑΤΟ METAR
Διάσπαρτα νέφη
Διάσπαρτα νέφη
 Άνεμος από Β
Άνεμος: Β 26 χΑω
Θερμοκρασία: 15°C
Σημ. Δρόσου: 8°C
Υγρασία: 63%
Βαρόμετρο: 1020 hPa
Σύννεφα: Διάσπαρτα νέφη
Ορατότητα: 10 χλμ
Ανάλυση νέφωσης: Διάσπαρτα νέφη 853μ
2017/11/02 12:04 1341 021204Z 36014KT 9999 FEW028 15/08 Q1020
 
(Ε.Α.Α.)  LG** - Κυνίδαρος  (Σταθμός:1371)
Νάξος Μικρές Κυκλάδες - Νάξος - N. Αιγαίο
Γ.Πλάτ: 37.10 - Γ.Μήκ: 25.48 - Υψόμ: 410μ
Απόσταση από το Vouhead Weather: (ΝΝΑ) 442χλμ
Ενημερώθηκε: 02/11/2017 14:04
ΜΗ ΠΡΟΣΦΑΤΟ METAR
Διάσπαρτα νέφη
Διάσπαρτα νέφη
 Άνεμος από ΒΔ
Άνεμος: ΒΔ 4 χΑω
Θερμοκρασία: 13°C
Σημ. Δρόσου: 7°C
Υγρασία: 67%
Βαρόμετρο: 1019 hPa
Σύννεφα: Διάσπαρτα νέφη
Ορατότητα: 9 χλμ
Ανάλυση νέφωσης: Διάσπαρτα νέφη 701μ
2017/11/02 12:04 1371 021204Z 31502KT 9000 FEW023 13/07 Q1019
(Ι.Μ.Σ.)  Καρλόβασι(Λιμάνι)  (Σταθμός:1173)
Σάμος - Σάμος - Β. Αιγαίο
Γ.Πλάτ: 37.79 - Γ.Μήκ: 26.68 - Υψόμ: 15μ
Απόσταση από το Vouhead Weather: (ΝΑ) 444χλμ
Ενημερώθηκε: 28/11/2018 18:49
ΜΗ ΠΡΟΣΦΑΤΟ METAR
Κυρίως νεφελώδης
Κυρίως νεφελώδης
 Άνεμος από ΑΝΑ
Άνεμος: ΑΝΑ 2 χΑω
Θερμοκρασία: 14°C
Σημ. Δρόσου: 12°C
Υγρασία: 88%
Βαρόμετρο: 1009 hPa
Σύννεφα: Κυρίως νεφελώδης
Ορατότητα: 7 χλμ
Ανάλυση νέφωσης: Κυρίως νεφελώδης 2438μ
2018/11/28 16:49 1173 281649Z 11201KT 7000 BKN080 14/12 Q1009
 
(Ε.Α.Α.)  LGF1 - Καρλόβασι  (Σταθμός:1196)
Σάμος - Σάμος - Β. Αιγαίο
Γ.Πλάτ: 37.81 - Γ.Μήκ: 26.73 - Υψόμ: 10μ
Απόσταση από το Vouhead Weather: (ΝΑ) 446χλμ
Ενημερώθηκε: 02/11/2017 14:04
ΜΗ ΠΡΟΣΦΑΤΟ METAR
Μερικώς νεφελώδης
Μερικώς νεφελώδης
 Άνεμος από ΒΑ
Άνεμος: ΒΑ 4 χΑω
Θερμοκρασία: 16°C
Σημ. Δρόσου: 8°C
Υγρασία: 59%
Βαρόμετρο: 1017 hPa
Σύννεφα: Μερικώς νεφελώδης
Ορατότητα: 10 χλμ
Ανάλυση νέφωσης: Μερικώς νεφελώδης 1006μ
2017/11/02 12:04 1196 021204Z 04502KT 9999 SCT033 16/08 Q1017
(Ε.Α.Α.)  LG** - Ηρακλειά  (Σταθμός:1391)
Νάξος Μικρές Κυκλάδες - Νάξος - N. Αιγαίο
Γ.Πλάτ: 36.84 - Γ.Μήκ: 25.46 - Υψόμ: 24μ
Απόσταση από το Vouhead Weather: (ΝΝΑ) 467χλμ
Ενημερώθηκε: 02/11/2017 14:04
ΜΗ ΠΡΟΣΦΑΤΟ METAR
Αίθριος
Αίθριος
 Άνεμος από ΔΒΔ
Άνεμος: ΔΒΔ 7 χΑω
Θερμοκρασία: 17°C
Σημ. Δρόσου: 9°C
Υγρασία: 59%
Βαρόμετρο: 1019 hPa
Σύννεφα: Αίθριος
Ορατότητα: 10 χλμ
2017/11/02 12:04 1391 021204Z 29204KT 9999 SKC 17/09 Q1019
 
(Ε.Α.Α.)  LGI0 - Ίος  (Σταθμός:1267)
Ίος - Θήρα - N. Αιγαίο
Γ.Πλάτ: 36.73 - Γ.Μήκ: 25.27 - Υψόμ: 2μ
Απόσταση από το Vouhead Weather: (ΝΝΑ) 471χλμ
Ενημερώθηκε: 02/11/2017 14:04
ΜΗ ΠΡΟΣΦΑΤΟ METAR
Διάσπαρτα νέφη
Διάσπαρτα νέφη
 Άνεμος από Β
Άνεμος: Β 28 χΑω
Θερμοκρασία: 16°C
Σημ. Δρόσου: 9°C
Υγρασία: 63%
Βαρόμετρο: 1020 hPa
Σύννεφα: Διάσπαρτα νέφη
Ορατότητα: 10 χλμ
Ανάλυση νέφωσης: Διάσπαρτα νέφη 884μ
2017/11/02 12:04 1267 021204Z 36015KT 9999 FEW029 16/09 Q1020
(Ε.Α.Α.)  LG65 - Πάτμος  (Σταθμός:1003)
Πάτμος - Κάλυμνος - N. Αιγαίο
Γ.Πλάτ: 37.32 - Γ.Μήκ: 26.54 - Υψόμ: 12μ
Απόσταση από το Vouhead Weather: (ΝΑ) 475χλμ
Ενημερώθηκε: 02/11/2017 14:03
ΜΗ ΠΡΟΣΦΑΤΟ METAR
Αίθριος
Αίθριος
 Άνεμος από ΒΔ
Άνεμος: ΒΔ 20 χΑω
Θερμοκρασία: 15°C
Σημ. Δρόσου: 7°C
Υγρασία: 59%
Βαρόμετρο: 1018 hPa
Σύννεφα: Αίθριος
Ορατότητα: 10 χλμ
2017/11/02 12:03 1003 021203Z 31511KT 9999 SKC 15/07 Q1018
 
(Ι.Μ.Σ.)  Κατάπολα  (Σταθμός:1385)
Αμοργός - Νάξος - N. Αιγαίο
Γ.Πλάτ: 36.83 - Γ.Μήκ: 25.86 - Υψόμ: 30μ
Απόσταση από το Vouhead Weather: (ΝΝΑ) 485χλμ
Ενημερώθηκε: 02/11/2017 14:04
ΜΗ ΠΡΟΣΦΑΤΟ METAR
Διάσπαρτα νέφη
Διάσπαρτα νέφη
 Άνεμος από ΔΒΔ
Άνεμος: ΔΒΔ 6 χΑω
Θερμοκρασία: 18°C
Σημ. Δρόσου: 8°C
Υγρασία: 52%
Βαρόμετρο: 1020 hPa
Σύννεφα: Διάσπαρτα νέφη
Ορατότητα: 10 χλμ
Ανάλυση νέφωσης: Διάσπαρτα νέφη 1189μ
2017/11/02 12:04 1385 021204Z 29203KT 9999 FEW039 18/08 Q1020
(Ε.Α.Α.)  LGG6 - Κάλυμνος  (Σταθμός:1213)
Κάλυμνος - Κάλυμνος - N. Αιγαίο
Γ.Πλάτ: 36.95 - Γ.Μήκ: 26.98 - Υψόμ: 35μ
Απόσταση από το Vouhead Weather: (ΝΑ) 531χλμ
Ενημερώθηκε: 02/11/2017 14:04
ΜΗ ΠΡΟΣΦΑΤΟ METAR
Αίθριος
Αίθριος
 Άνεμος από ΔΒΔ
Άνεμος: ΔΒΔ 4 χΑω
Θερμοκρασία: 17°C
Σημ. Δρόσου: 8°C
Υγρασία: 56%
Βαρόμετρο: 1018 hPa
Σύννεφα: Αίθριος
Ορατότητα: 10 χλμ
2017/11/02 12:04 1213 021204Z 29202KT 9999 SKC 17/08 Q1018
 
(Ε.Α.Α.)  LGL9 - Φαλάσαρνα  (Σταθμός:1334)
Κίσσαμος - Χανιά - Κρήτη
Γ.Πλάτ: 35.50 - Γ.Μήκ: 23.58 - Υψόμ: 10μ
Απόσταση από το Vouhead Weather: (ΝΝΑ) 565χλμ
Ενημερώθηκε: 02/11/2017 14:04
ΜΗ ΠΡΟΣΦΑΤΟ METAR
Διάσπαρτα νέφη
Διάσπαρτα νέφη
 Άνεμος από ΒΒΔ
Άνεμος: ΒΒΔ 11 χΑω
Θερμοκρασία: 19°C
Σημ. Δρόσου: 11°C
Υγρασία: 60%
Βαρόμετρο: 1018 hPa
Σύννεφα: Διάσπαρτα νέφη
Ορατότητα: 10 χλμ
Ανάλυση νέφωσης: Διάσπαρτα νέφη 914μ
2017/11/02 12:04 1334 021204Z 33706KT 9999 FEW030 19/11 Q1018
(ΕΘ.Ι.ΑΓ.Ε.)  Δραπανιάς  (Σταθμός:1236)
Κίσσαμος - Χανιά - Κρήτη
Γ.Πλάτ: 35.49 - Γ.Μήκ: 23.70 - Υψόμ: 35μ
Απόσταση από το Vouhead Weather: (ΝΝΑ) 567χλμ
Ενημερώθηκε: 03/07/2015 13:19
ΜΗ ΠΡΟΣΦΑΤΟ METAR
Αίθριος
Αίθριος
 Άνεμος από ΑΒΑ
Άνεμος: ΑΒΑ 11 χΑω
Θερμοκρασία: 27°C
Δείκτης Δυσφορίας: 28°C
Σημ. Δρόσου: 17°C
Υγρασία: 54%
Βαρόμετρο: 1017 hPa
Σύννεφα: Αίθριος
Ορατότητα: 10 χλμ
2015/07/03 10:19 1236 031019Z 06706KT 9999 SKC 27/17 Q1017
 
(Ε.Α.Α.)  LGN3 - Χανιά(Κέντρο)  (Σταθμός:1350)
Χανιά - Χανιά - Κρήτη
Γ.Πλάτ: 35.51 - Γ.Μήκ: 24.01 - Υψόμ: 7μ
Απόσταση από το Vouhead Weather: (ΝΝΑ) 568χλμ
Ενημερώθηκε: 02/11/2017 14:04
ΜΗ ΠΡΟΣΦΑΤΟ METAR
Διάσπαρτα νέφη
Διάσπαρτα νέφη
 Άνεμος από ΑΒΑ
Άνεμος: ΑΒΑ 7 χΑω
Θερμοκρασία: 18°C
Σημ. Δρόσου: 11°C
Υγρασία: 64%
Βαρόμετρο: 1020 hPa
Σύννεφα: Διάσπαρτα νέφη
Ορατότητα: 9 χλμ
Ανάλυση νέφωσης: Διάσπαρτα νέφη 792μ
2017/11/02 12:04 1350 021204Z 06704KT 9000 FEW026 18/11 Q1020
(Ε.Α.Α.)  LG25 - Χανιά  (Σταθμός:1027)
Χανιά - Χανιά - Κρήτη
Γ.Πλάτ: 35.51 - Γ.Μήκ: 24.02 - Υψόμ: 137μ
Απόσταση από το Vouhead Weather: (ΝΝΑ) 569χλμ
Ενημερώθηκε: 02/11/2017 14:04
ΜΗ ΠΡΟΣΦΑΤΟ METAR
Διάσπαρτα νέφη
Διάσπαρτα νέφη
 Άνεμος από ΑΒΑ
Άνεμος: ΑΒΑ 7 χΑω
Θερμοκρασία: 18°C
Σημ. Δρόσου: 11°C
Υγρασία: 64%
Βαρόμετρο: 1020 hPa
Σύννεφα: Διάσπαρτα νέφη
Ορατότητα: 9 χλμ
Ανάλυση νέφωσης: Διάσπαρτα νέφη 853μ
2017/11/02 12:04 1027 021204Z 06704KT 9000 FEW028 18/11 Q1020
 
(ΕΘ.Ι.ΑΓ.Ε.)  Αρμένοι  (Σταθμός:1378)
Αποκόρωνας - Χανιά - Κρήτη
Γ.Πλάτ: 35.42 - Γ.Μήκ: 24.14 - Υψόμ: 40μ
Απόσταση από το Vouhead Weather: (ΝΝΑ) 579χλμ
Ενημερώθηκε: 19/05/2022 08:06
ΜΗ ΠΡΟΣΦΑΤΟ METAR
Νεφοσκεπής
Νεφοσκεπής
 Άνεμος από ΒΒΑ
Άνεμος: ΒΒΑ 13 χΑω
Θερμοκρασία: 15°C
Σημ. Δρόσου: 8°C
Υγρασία: 63%
Βαρόμετρο: 1022 hPa
Σύννεφα: Νεφοσκεπής
Ορατότητα: 9 χλμ
Ανάλυση νέφωσης: Νεφοσκεπής 792μ
2022/05/19 05:06 1378 190506Z 02207KT 9000 OVC026 15/08 Q1022
(ΕΘ.Ι.ΑΓ.Ε.)  Έλος  (Σταθμός:1029)
Κίσσαμος - Χανιά - Κρήτη
Γ.Πλάτ: 35.36 - Γ.Μήκ: 23.61 - Υψόμ: 535μ
Απόσταση από το Vouhead Weather: (ΝΝΑ) 580χλμ
Ενημερώθηκε: 02/11/2017 14:04
ΜΗ ΠΡΟΣΦΑΤΟ METAR
Διάσπαρτα νέφη
Διάσπαρτα νέφη
 Άνεμος από calm
Άνεμος: Απνοια
Θερμοκρασία: 16°C
Σημ. Δρόσου: 10°C
Υγρασία: 68%
Βαρόμετρο: 1020 hPa
Σύννεφα: Διάσπαρτα νέφη
Ορατότητα: 9 χλμ
Ανάλυση νέφωσης: Διάσπαρτα νέφη 762μ
2017/11/02 12:04 1029 021204Z 00000KT 9000 FEW025 16/10 Q1020
 
(Ε.Α.Α.)  LG70 - Βρύσες  (Σταθμός:1028)
Αποκόρωνας - Χανιά - Κρήτη
Γ.Πλάτ: 35.40 - Γ.Μήκ: 24.15 - Υψόμ: 58μ
Απόσταση από το Vouhead Weather: (ΝΝΑ) 586χλμ
Ενημερώθηκε: 02/11/2017 14:04
ΜΗ ΠΡΟΣΦΑΤΟ METAR
Διάσπαρτα νέφη
Διάσπαρτα νέφη
 Άνεμος από ΒΔ
Άνεμος: ΒΔ 2 χΑω
Θερμοκρασία: 17°C
Σημ. Δρόσου: 10°C
Υγρασία: 64%
Βαρόμετρο: 1019 hPa
Σύννεφα: Διάσπαρτα νέφη
Ορατότητα: 10 χλμ
Ανάλυση νέφωσης: Διάσπαρτα νέφη 945μ
2017/11/02 12:04 1028 021204Z 31501KT 9999 FEW031 17/10 Q1019
(Ε.Α.Α.)  LGB4 - Σαμαριά(Φαράγγι)  (Σταθμός:1139)
Σφακιά - Χανιά - Κρήτη
Γ.Πλάτ: 35.30 - Γ.Μήκ: 23.92 - Υψόμ: 1250μ
Απόσταση από το Vouhead Weather: (ΝΝΑ) 589χλμ
Ενημερώθηκε: 02/11/2017 12:49
ΜΗ ΠΡΟΣΦΑΤΟ METAR
Μερικώς νεφελώδης
Μερικώς νεφελώδης
 Άνεμος από ΒΒΔ
Άνεμος: ΒΒΔ 4 χΑω
Θερμοκρασία: 9°C
Σημ. Δρόσου: 8°C
Υγρασία: 94%
Βαρόμετρο: 1024 hPa
Σύννεφα: Μερικώς νεφελώδης
Ορατότητα: 6 χλμ
Ανάλυση νέφωσης: Μερικώς νεφελώδης 1219μ
2017/11/02 10:49 1139 021049Z 33702KT 6000 SCT040 09/08 Q1024
 
(Ε.Α.Α.)  LG58 - Ρέθυμνο  (Σταθμός:1024)
Ρέθυμνο - Ρέθυμνο - Κρήτη
Γ.Πλάτ: 35.36 - Γ.Μήκ: 24.47 - Υψόμ: 39μ
Απόσταση από το Vouhead Weather: (ΝΝΑ) 592χλμ
Ενημερώθηκε: 18/01/2017 17:49
ΜΗ ΠΡΟΣΦΑΤΟ METAR
Αίθριος
Αίθριος
 Άνεμος από ΝΝΑ
Άνεμος: ΝΝΑ 15 χΑω
Θερμοκρασία: 14°C
Σημ. Δρόσου: 8°C
Υγρασία: 67%
Βαρόμετρο: 1017 hPa
Σύννεφα: Αίθριος
Ορατότητα: 9 χλμ
2017/01/18 15:49 1024 181549Z 15708KT 9000 SKC 14/08 Q1017
(Ε.Α.Α.)  LG36 - Παλαιοχώρα  (Σταθμός:1030)
Κάντανος Σέλινο - Χανιά - Κρήτη
Γ.Πλάτ: 35.23 - Γ.Μήκ: 23.68 - Υψόμ: 3μ
Απόσταση από το Vouhead Weather: (ΝΝΑ) 595χλμ
Ενημερώθηκε: 02/11/2017 14:04
ΜΗ ΠΡΟΣΦΑΤΟ METAR
Αίθριος
Αίθριος
 Άνεμος από ΒΒΔ
Άνεμος: ΒΒΔ 6 χΑω
Θερμοκρασία: 21°C
Σημ. Δρόσου: 10°C
Υγρασία: 50%
Βαρόμετρο: 1017 hPa
Σύννεφα: Αίθριος
Ορατότητα: 10 χλμ
2017/11/02 12:04 1030 021204Z 33703KT 9999 SKC 21/10 Q1017
 
(Ι.Μ.Σ.)  Ρούστικα  (Σταθμός:1134)
Ρέθυμνο - Ρέθυμνο - Κρήτη
Γ.Πλάτ: 35.29 - Γ.Μήκ: 24.38 - Υψόμ: 310μ
Απόσταση από το Vouhead Weather: (ΝΝΑ) 599χλμ
Ενημερώθηκε: 19/06/2018 09:49
ΜΗ ΠΡΟΣΦΑΤΟ METAR
Διάσπαρτα νέφη
Διάσπαρτα νέφη
 Άνεμος από calm
Άνεμος: Απνοια
Θερμοκρασία: 22°C
Σημ. Δρόσου: 20°C
Υγρασία: 88%
Βαρόμετρο: 1008 hPa
Σύννεφα: Διάσπαρτα νέφη
Ορατότητα: 7 χλμ
Ανάλυση νέφωσης: Διάσπαρτα νέφη 2743μ
2018/06/19 06:49 1134 190649Z 00000KT 7000 FEW090 22/20 Q1008
(Ε.Α.Α.)  LG** - Φράγμα Ποταμών  (Σταθμός:1165)
(Οργανισμός Ανάπτυξης Δυτικής Κρήτης)
Αμάρι - Ρέθυμνο - Κρήτη
Γ.Πλάτ: 35.28 - Γ.Μήκ: 24.57 - Υψόμ: 240μ
Απόσταση από το Vouhead Weather: (ΝΝΑ) 603χλμ
Ενημερώθηκε: 02/11/2017 14:04
ΜΗ ΠΡΟΣΦΑΤΟ METAR
Μερικώς νεφελώδης
Μερικώς νεφελώδης
 Άνεμος από ΒΒΑ
Άνεμος: ΒΒΑ 15 χΑω
Θερμοκρασία: 16°C
Σημ. Δρόσου: 10°C
Υγρασία: 68%
Βαρόμετρο: 1020 hPa
Σύννεφα: Μερικώς νεφελώδης
Ορατότητα: 9 χλμ
Ανάλυση νέφωσης: Μερικώς νεφελώδης 762μ
2017/11/02 12:04 1165 021204Z 02208KT 9000 SCT025 16/10 Q1020
 
(Ι.Μ.Σ.)  Γάζι  (Σταθμός:1311)
Μαλεβίζι - Ηράκλειο - Κρήτη
Γ.Πλάτ: 35.33 - Γ.Μήκ: 25.09 - Υψόμ: 20μ
Απόσταση από το Vouhead Weather: (ΑΒΑ) 608χλμ
Ενημερώθηκε: 02/11/2017 10:19
ΜΗ ΠΡΟΣΦΑΤΟ METAR
Διάσπαρτα νέφη
Διάσπαρτα νέφη
 Άνεμος από ΒΒΔ
Άνεμος: ΒΒΔ 2 χΑω
Θερμοκρασία: 3°C
Σημ. Δρόσου: 1°C
Υγρασία: 87%
Βαρόμετρο: 1026 hPa
Σύννεφα: Διάσπαρτα νέφη
Ορατότητα: 8 χλμ
Ανάλυση νέφωσης: Διάσπαρτα νέφη 2743μ
2017/11/02 08:19 1311 020819Z 33701KT 8000 FEW090 03/01 Q1026
(Ε.Α.Α.)  LGB6 - Ανώγεια  (Σταθμός:1143)
Ανώγεια - Ρέθυμνο - Κρήτη
Γ.Πλάτ: 35.29 - Γ.Μήκ: 24.88 - Υψόμ: 801μ
Απόσταση από το Vouhead Weather: (ΝΝΑ) 609χλμ
Ενημερώθηκε: 02/11/2017 14:04
ΜΗ ΠΡΟΣΦΑΤΟ METAR
Μερικώς νεφελώδης
Μερικώς νεφελώδης
 Άνεμος από Δ
Άνεμος: Δ 6 χΑω
Θερμοκρασία: 11°C
Σημ. Δρόσου: 8°C
Υγρασία: 82%
Βαρόμετρο: 1019 hPa
Σύννεφα: Μερικώς νεφελώδης
Ορατότητα: 8 χλμ
Ανάλυση νέφωσης: Μερικώς νεφελώδης 366μ
2017/11/02 12:04 1143 021204Z 27003KT 8000 SCT012 11/08 Q1019
 
(Ε.Α.Α.)  LG61 - Ηράκλειο(Λιμάνι)  (Σταθμός:1023)
(Μουσείο Φυσικής Ιστορίας Κρήτης)
Ηράκλειο - Ηράκλειο - Κρήτη
Γ.Πλάτ: 35.35 - Γ.Μήκ: 25.15 - Υψόμ: 10μ
Απόσταση από το Vouhead Weather: (ΝΝΑ) 610χλμ
Ενημερώθηκε: 02/11/2017 14:04
ΜΗ ΠΡΟΣΦΑΤΟ METAR
Μερικώς νεφελώδης
Μερικώς νεφελώδης
 Άνεμος από ΒΒΔ
Άνεμος: ΒΒΔ 17 χΑω
Θερμοκρασία: 17°C
Σημ. Δρόσου: 11°C
Υγρασία: 68%
Βαρόμετρο: 1019 hPa
Σύννεφα: Μερικώς νεφελώδης
Ορατότητα: 9 χλμ
Ανάλυση νέφωσης: Μερικώς νεφελώδης 701μ
2017/11/02 12:04 1023 021204Z 33709KT 9000 SCT023 17/11 Q1019
(Ι.Μ.Σ.)  Ηράκλειο(Πόρος)  (Σταθμός:1122)
Ηράκλειο - Ηράκλειο - Κρήτη
Γ.Πλάτ: 35.33 - Γ.Μήκ: 25.15 - Υψόμ: 40μ
Απόσταση από το Vouhead Weather: (ΝΝΑ) 611χλμ
Ενημερώθηκε: 02/11/2017 14:04
ΜΗ ΠΡΟΣΦΑΤΟ METAR
Διάσπαρτα νέφη
Διάσπαρτα νέφη
 Άνεμος από Ν
Άνεμος: Ν 7 χΑω
Θερμοκρασία: 13°C
Σημ. Δρόσου: 5°C
Υγρασία: 59%
Βαρόμετρο: 1021 hPa
Σύννεφα: Διάσπαρτα νέφη
Ορατότητα: 10 χλμ
Ανάλυση νέφωσης: Διάσπαρτα νέφη 975μ
2017/11/02 12:04 1122 021204Z 18004KT 9999 FEW032 13/05 Q1021
 
(Ε.Α.Α.)  LGL1 - Φουρφουράς  (Σταθμός:1106)
(4/θ Δημοτικό Σχολείο Φουρφουρά)
(fourfouras.tv)
Αμάρι - Ρέθυμνο - Κρήτη
Γ.Πλάτ: 35.21 - Γ.Μήκ: 24.71 - Υψόμ: 471μ
Απόσταση από το Vouhead Weather: (ΝΝΑ) 614χλμ
Ενημερώθηκε: 02/11/2017 14:04
ΜΗ ΠΡΟΣΦΑΤΟ METAR
Μερικώς νεφελώδης
Μερικώς νεφελώδης
 Άνεμος από ΒΔ
Άνεμος: ΒΔ 20 χΑω
Θερμοκρασία: 14°C
Σημ. Δρόσου: 8°C
Υγρασία: 67%
Βαρόμετρο: 1018 hPa
Σύννεφα: Μερικώς νεφελώδης
Ορατότητα: 9 χλμ
Ανάλυση νέφωσης: Μερικώς νεφελώδης 671μ
2017/11/02 12:04 1106 021204Z 31511KT 9000 SCT022 14/08 Q1018
(Ε.Α.Α.)  LG30 - Κνωσσός  (Σταθμός:1022)
Ηράκλειο - Ηράκλειο - Κρήτη
Γ.Πλάτ: 35.30 - Γ.Μήκ: 25.16 - Υψόμ: 115μ
Απόσταση από το Vouhead Weather: (ΝΝΑ) 615χλμ
Ενημερώθηκε: 02/11/2017 14:04
ΜΗ ΠΡΟΣΦΑΤΟ METAR
Μερικώς νεφελώδης
Μερικώς νεφελώδης
 Άνεμος από ΒΒΑ
Άνεμος: ΒΒΑ 9 χΑω
Θερμοκρασία: 17°C
Σημ. Δρόσου: 10°C
Υγρασία: 64%
Βαρόμετρο: 1020 hPa
Σύννεφα: Μερικώς νεφελώδης
Ορατότητα: 9 χλμ
Ανάλυση νέφωσης: Μερικώς νεφελώδης 792μ
2017/11/02 12:04 1022 021204Z 02205KT 9000 SCT026 17/10 Q1020
 
(Ι.Μ.Σ.)  Σταυράκια  (Σταθμός:1310)
Ηράκλειο - Ηράκλειο - Κρήτη
Γ.Πλάτ: 35.25 - Γ.Μήκ: 25.06 - Υψόμ: 245μ
Απόσταση από το Vouhead Weather: (ΝΝΑ) 618χλμ
Ενημερώθηκε: 08/05/2022 00:51
ΜΗ ΠΡΟΣΦΑΤΟ METAR
Αίθριος
Αίθριος
 Άνεμος από calm
Άνεμος: Απνοια
Θερμοκρασία: 14°C
Σημ. Δρόσου: 12°C
Υγρασία: 88%
Βαρόμετρο: 1017 hPa
Σύννεφα: Αίθριος
Ορατότητα: 7 χλμ
2022/05/07 21:51 1310 072151Z 00000KT 7000 SKC 14/12 Q1017
(Ι.Μ.Σ.)  Γέργερη  (Σταθμός:1210)
Γόρτυνα - Ηράκλειο - Κρήτη
Γ.Πλάτ: 35.13 - Γ.Μήκ: 24.95 - Υψόμ: 530μ
Απόσταση από το Vouhead Weather: (ΝΝΑ) 628χλμ
Ενημερώθηκε: 02/11/2017 14:04
ΜΗ ΠΡΟΣΦΑΤΟ METAR
Αίθριος
Αίθριος
 Άνεμος από ΑΒΑ
Άνεμος: ΑΒΑ 7 χΑω
Θερμοκρασία: 18°C
Σημ. Δρόσου: 9°C
Υγρασία: 56%
Βαρόμετρο: 1019 hPa
Σύννεφα: Αίθριος
Ορατότητα: 10 χλμ
2017/11/02 12:04 1210 021204Z 06704KT 9999 SKC 18/09 Q1019
 
(Ε.Α.Α.)  LGD7 - Μεταξοχώρι  (Σταθμός:1172)
Αρχάνες Αστερούσια - Ηράκλειο - Κρήτη
Γ.Πλάτ: 35.10 - Γ.Μήκ: 25.14 - Υψόμ: 418μ
Απόσταση από το Vouhead Weather: (ΝΝΑ) 633χλμ
Ενημερώθηκε: 02/11/2017 14:04
ΜΗ ΠΡΟΣΦΑΤΟ METAR
Διάσπαρτα νέφη
Διάσπαρτα νέφη
 Άνεμος από ΔΝΔ
Άνεμος: ΔΝΔ 4 χΑω
Θερμοκρασία: 15°C
Σημ. Δρόσου: 10°C
Υγρασία: 72%
Βαρόμετρο: 1018 hPa
Σύννεφα: Διάσπαρτα νέφη
Ορατότητα: 9 χλμ
Ανάλυση νέφωσης: Διάσπαρτα νέφη 701μ
2017/11/02 12:04 1172 021204Z 24702KT 9000 FEW023 15/10 Q1018
(Ε.Α.Α.)  LG50 - Τζερμιάδο  (Σταθμός:1026)
Οροπέδιο Λασιθίου - Λασίθι - Κρήτη
Γ.Πλάτ: 35.20 - Γ.Μήκ: 25.49 - Υψόμ: 820μ
Απόσταση από το Vouhead Weather: (ΝΝΑ) 635χλμ
Ενημερώθηκε: 02/11/2017 14:04
ΜΗ ΠΡΟΣΦΑΤΟ METAR
Μερικώς νεφελώδης
Μερικώς νεφελώδης
 Άνεμος από Β
Άνεμος: Β 4 χΑω
Θερμοκρασία: 11°C
Σημ. Δρόσου: 7°C
Υγρασία: 77%
Βαρόμετρο: 1019 hPa
Σύννεφα: Μερικώς νεφελώδης
Ορατότητα: 8 χλμ
Ανάλυση νέφωσης: Μερικώς νεφελώδης 427μ
2017/11/02 12:04 1026 021204Z 36002KT 8000 SCT014 11/07 Q1019
 
(Ε.Α.Α.)  LGI2 - Πετροκεφάλι  (Σταθμός:1269)
Φαιστός - Ηράκλειο - Κρήτη
Γ.Πλάτ: 35.03 - Γ.Μήκ: 24.83 - Υψόμ: 54μ
Απόσταση από το Vouhead Weather: (ΝΝΑ) 636χλμ
Ενημερώθηκε: 02/11/2017 14:04
ΜΗ ΠΡΟΣΦΑΤΟ METAR
Αίθριος
Αίθριος
 Άνεμος από ΔΝΔ
Άνεμος: ΔΝΔ 2 χΑω
Θερμοκρασία: 20°C
Σημ. Δρόσου: 10°C
Υγρασία: 53%
Βαρόμετρο: 1018 hPa
Σύννεφα: Αίθριος
Ορατότητα: 10 χλμ
2017/11/02 12:04 1269 021204Z 24701KT 9999 SKC 20/10 Q1018
(Ε.Α.Α.)  LGJ9 - Αγιος Νικόλαος  (Σταθμός:1303)
Αγιος Νικόλαος - Λασίθι - Κρήτη
Γ.Πλάτ: 35.19 - Γ.Μήκ: 25.71 - Υψόμ: 30μ
Απόσταση από το Vouhead Weather: (ΝΝΑ) 643χλμ
Ενημερώθηκε: 02/11/2017 14:04
ΜΗ ΠΡΟΣΦΑΤΟ METAR
Διάσπαρτα νέφη
Διάσπαρτα νέφη
 Άνεμος από Δ
Άνεμος: Δ 11 χΑω
Θερμοκρασία: 18°C
Σημ. Δρόσου: 10°C
Υγρασία: 60%
Βαρόμετρο: 1019 hPa
Σύννεφα: Διάσπαρτα νέφη
Ορατότητα: 10 χλμ
Ανάλυση νέφωσης: Διάσπαρτα νέφη 945μ
2017/11/02 12:04 1303 021204Z 27006KT 9999 FEW031 18/10 Q1019
 
(Ι.Μ.Σ.)  Μεσοχωριό  (Σταθμός:1203)
Αρχάνες Αστερούσια - Ηράκλειο - Κρήτη
Γ.Πλάτ: 35.02 - Γ.Μήκ: 25.20 - Υψόμ: 315μ
Απόσταση από το Vouhead Weather: (ΝΝΑ) 646χλμ
Ενημερώθηκε: 02/11/2017 14:04
ΜΗ ΠΡΟΣΦΑΤΟ METAR
Διάσπαρτα νέφη
Διάσπαρτα νέφη
 Άνεμος από ΒΒΑ
Άνεμος: ΒΒΑ 6 χΑω
Θερμοκρασία: 17°C
Σημ. Δρόσου: 7°C
Υγρασία: 52%
Βαρόμετρο: 1021 hPa
Σύννεφα: Διάσπαρτα νέφη
Ορατότητα: 10 χλμ
Ανάλυση νέφωσης: Διάσπαρτα νέφη 1158μ
2017/11/02 12:04 1203 021204Z 02203KT 9999 FEW038 17/07 Q1021
(Ε.Α.Α.)  LG** - Λέντας  (Σταθμός:1277)
Γόρτυνα - Ηράκλειο - Κρήτη
Γ.Πλάτ: 34.93 - Γ.Μήκ: 24.92 - Υψόμ: 9μ
Απόσταση από το Vouhead Weather: (ΝΝΑ) 647χλμ
Ενημερώθηκε: 02/11/2017 14:04
ΜΗ ΠΡΟΣΦΑΤΟ METAR
Αίθριος
Αίθριος
 Άνεμος από ΒΑ
Άνεμος: ΒΑ 13 χΑω
Θερμοκρασία: 20°C
Σημ. Δρόσου: 10°C
Υγρασία: 53%
Βαρόμετρο: 1018 hPa
Σύννεφα: Αίθριος
Ορατότητα: 10 χλμ
2017/11/02 12:04 1277 021204Z 04507KT 9999 SKC 20/10 Q1018
 
(Ι.Μ.Σ.)  Ρόδος(Ροδίνι)  (Σταθμός:1113)
Ρόδος - Ρόδος - N. Αιγαίο
Γ.Πλάτ: 36.43 - Γ.Μήκ: 28.23 - Υψόμ: 12μ
Απόσταση από το Vouhead Weather: (ΝΑ) 648χλμ
Ενημερώθηκε: 02/11/2017 14:04
ΜΗ ΠΡΟΣΦΑΤΟ METAR
Αίθριος
Αίθριος
 Άνεμος από Δ
Άνεμος: Δ 17 χΑω
Θερμοκρασία: 18°C
Σημ. Δρόσου: 10°C
Υγρασία: 60%
Βαρόμετρο: 1016 hPa
Σύννεφα: Αίθριος
Ορατότητα: 10 χλμ
2017/11/02 12:04 1113 021204Z 27009KT 9999 SKC 18/10 Q1016
(Ε.Α.Α.)  LGM2 - Σητεία  (Σταθμός:1338)
Σητεία - Λασίθι - Κρήτη
Γ.Πλάτ: 35.21 - Γ.Μήκ: 26.10 - Υψόμ: 30μ
Απόσταση από το Vouhead Weather: (ΝΝΑ) 655χλμ
Ενημερώθηκε: 02/11/2017 14:04
ΜΗ ΠΡΟΣΦΑΤΟ METAR
Μερικώς νεφελώδης
Μερικώς νεφελώδης
 Άνεμος από ΔΒΔ
Άνεμος: ΔΒΔ 15 χΑω
Θερμοκρασία: 17°C
Σημ. Δρόσου: 10°C
Υγρασία: 64%
Βαρόμετρο: 1018 hPa
Σύννεφα: Μερικώς νεφελώδης
Ορατότητα: 9 χλμ
Ανάλυση νέφωσης: Μερικώς νεφελώδης 762μ
2017/11/02 12:04 1338 021204Z 29208KT 9000 SCT025 17/10 Q1018
 
(Ε.Α.Α.)  LG95 - Ιεράπετρα  (Σταθμός:1102)
Ιεράπετρα - Λασίθι - Κρήτη
Γ.Πλάτ: 35.01 - Γ.Μήκ: 25.74 - Υψόμ: 5μ
Απόσταση από το Vouhead Weather: (ΝΝΑ) 663χλμ
Ενημερώθηκε: 02/11/2017 14:04
ΜΗ ΠΡΟΣΦΑΤΟ METAR
Νεφοσκεπής
Νεφοσκεπής
 Άνεμος από calm
Άνεμος: Απνοια
Θερμοκρασία: 18°C
Σημ. Δρόσου: 10°C
Υγρασία: 60%
Βαρόμετρο: 1017 hPa
Σύννεφα: Νεφοσκεπής
Ορατότητα: 10 χλμ
Ανάλυση νέφωσης: Νεφοσκεπής 914μ
2017/11/02 12:04 1102 021204Z 00000KT 9999 OVC030 18/10 Q1017
(Ε.Α.Α.)  LGM5 - Φρυ  (Σταθμός:1340)
Κάσος - Κάρπαθος - N. Αιγαίο
Γ.Πλάτ: 35.42 - Γ.Μήκ: 26.92 - Υψόμ: 15μ
Απόσταση από το Vouhead Weather: (ΝΝΑ) 668χλμ
Ενημερώθηκε: 02/11/2017 14:04
ΜΗ ΠΡΟΣΦΑΤΟ METAR
Μερικώς νεφελώδης
Μερικώς νεφελώδης
 Άνεμος από ΒΔ
Άνεμος: ΒΔ 26 χΑω
Θερμοκρασία: 17°C
Σημ. Δρόσου: 12°C
Υγρασία: 73%
Βαρόμετρο: 1018 hPa
Σύννεφα: Μερικώς νεφελώδης
Ορατότητα: 8 χλμ
Ανάλυση νέφωσης: Μερικώς νεφελώδης 610μ
2017/11/02 12:04 1340 021204Z 31514KT 8000 SCT020 17/12 Q1018
Πηγή Αναφορών METAR:  www.metar.gr
   Μην χρησιμοποιήσετε τα στοιχεία για αποφάσεις που αφορούν ζωές και πάσης φύσεως ιδιοκτησίες  
ΠΗΓΑΙΝΕΤΕ ΣΤΗΝ ΙΟΝΙΑ GO TO REA ΠΗΓΑΙΝΕΤΕ ΣΤΗΝ ΚΗΦΙΣΙΑ ΠΗΓΑΙΝΕΤΕ ΣΤΗΝ ΣΥΡΟ ΠΗΓΑΙΝΕΤΕ ΣΤΗΝ ΔΕΞΑΜΕΝΗ (BOLTEK) ΠΗΓΑΙΝΕΤΕ ΣΤΗΝ ΔΕΞΑΜΕΝΗ (LR) ΠΗΓΑΙΝΕΤΕ ΣΤΗΝ ΛΑΡΙΣΑ Γενική Γραμματεία Πολιτικής Προστασίας Ενιαίος Ευρωπαϊκός Αριθμός Έκτακτης Ανάγκης Βίντεο για το Καστελλόριζο(Μεγίστη) από τα αρχεία της ΕΡΤ Ιστοσελίδα Δήμου Μεγίστης Δείτε το μεγαλύτερο